DLH030 LTFJ-LSZH
Flight info
| Callsign | DLH030 |
|---|---|
| Flight time | 2h 28m |
| Altitude | 40000 |
| Route | VADEN1J/06L VADEN DCT BAKLO DCT ROVAM DCT DOLAP DCT SOMUN DCT PODET DCT KLAGY DCT KFT DCT ERKIR DCT KPT L856 NEGRA |
| Aircraft | B736/M-SDE2E3FGHIRWXY/LB1 |
Departure
| Time | 2026-04-30 20:12 |
|---|---|
| Airport | Istanbul Sabiha Gökçen International Airport (LTFJ) |
Arrival
| Time | 2026-04-30 22:41 |
|---|---|
| Airport | Zürich Airport (LSZH) |
| Time | Latitude | Longitude | Altitude | Speed | Heading |
|---|---|---|---|---|---|
| 2026-04-30 19:41 | 40.90506 | 29.31893 | 317 ft | 0 kts | 154° |
| 2026-04-30 20:00 | 40.90515 | 29.31887 | 317 ft | 3 kts | 153° |
| 2026-04-30 20:00 | 40.90536 | 29.31873 | 315 ft | 3 kts | 152° |
| 2026-04-30 20:00 | 40.90558 | 29.31858 | 316 ft | 3 kts | 155° |
| 2026-04-30 20:01 | 40.90603 | 29.31838 | 315 ft | 3 kts | 174° |
| 2026-04-30 20:01 | 40.90617 | 29.31837 | 317 ft | 0 kts | 175° |
| 2026-04-30 20:05 | 40.90614 | 29.31837 | 316 ft | 0 kts | 174° |
| 2026-04-30 20:06 | 40.90608 | 29.31846 | 315 ft | 3 kts | 127° |
| 2026-04-30 20:06 | 40.90593 | 29.31834 | 316 ft | 4 kts | 246° |
| 2026-04-30 20:07 | 40.90578 | 29.31787 | 317 ft | 8 kts | 247° |
| 2026-04-30 20:07 | 40.90548 | 29.31706 | 317 ft | 12 kts | 243° |
| 2026-04-30 20:07 | 40.90449 | 29.31510 | 317 ft | 10 kts | 167° |
| 2026-04-30 20:08 | 40.90371 | 29.31545 | 317 ft | 13 kts | 159° |
| 2026-04-30 20:08 | 40.90289 | 29.31535 | 317 ft | 14 kts | 243° |
| 2026-04-30 20:08 | 40.90242 | 29.31403 | 317 ft | 17 kts | 244° |
| 2026-04-30 20:08 | 40.90182 | 29.31249 | 317 ft | 20 kts | 243° |
| 2026-04-30 20:09 | 40.90117 | 29.31069 | 316 ft | 23 kts | 246° |
| 2026-04-30 20:09 | 40.90045 | 29.30869 | 316 ft | 25 kts | 245° |
| 2026-04-30 20:09 | 40.89883 | 29.30433 | 316 ft | 28 kts | 244° |
| 2026-04-30 20:10 | 40.89698 | 29.29925 | 316 ft | 33 kts | 245° |
| 2026-04-30 20:10 | 40.89599 | 29.29659 | 315 ft | 31 kts | 244° |
| 2026-04-30 20:10 | 40.89509 | 29.29411 | 315 ft | 29 kts | 246° |
| 2026-04-30 20:11 | 40.89344 | 29.29292 | 316 ft | 9 kts | 153° |
| 2026-04-30 20:11 | 40.89294 | 29.29334 | 317 ft | 8 kts | 143° |
| 2026-04-30 20:11 | 40.89294 | 29.29395 | 316 ft | 8 kts | 60° |
| 2026-04-30 20:12 | 40.89528 | 29.30033 | 316 ft | 127 kts | 65° |
| 2026-04-30 20:12 | 40.90044 | 29.31399 | 819 ft | 189 kts | 60° |
| 2026-04-30 20:12 | 40.90700 | 29.33060 | 1993 ft | 217 kts | 63° |
| 2026-04-30 20:13 | 40.91349 | 29.34890 | 3012 ft | 224 kts | 64° |
| 2026-04-30 20:13 | 40.92039 | 29.36809 | 4015 ft | 238 kts | 64° |
| 2026-04-30 20:13 | 40.92779 | 29.38841 | 5068 ft | 251 kts | 64° |
| 2026-04-30 20:13 | 40.93560 | 29.40970 | 6076 ft | 263 kts | 63° |
| 2026-04-30 20:14 | 40.94373 | 29.43183 | 7089 ft | 273 kts | 64° |
| 2026-04-30 20:14 | 40.95217 | 29.45487 | 8092 ft | 283 kts | 65° |
| 2026-04-30 20:14 | 40.96085 | 29.47866 | 9132 ft | 291 kts | 65° |
| 2026-04-30 20:14 | 40.96978 | 29.50310 | 10159 ft | 299 kts | 65° |
| 2026-04-30 20:15 | 40.97893 | 29.52813 | 11150 ft | 305 kts | 65° |
| 2026-04-30 20:15 | 40.98822 | 29.55357 | 12145 ft | 310 kts | 65° |
| 2026-04-30 20:15 | 40.99805 | 29.57917 | 13171 ft | 315 kts | 57° |
| 2026-04-30 20:15 | 41.01346 | 29.59977 | 14077 ft | 321 kts | 29° |
| 2026-04-30 20:16 | 41.03439 | 29.60959 | 14817 ft | 320 kts | 360° |
| 2026-04-30 20:16 | 41.05630 | 29.60720 | 15566 ft | 316 kts | 339° |
| 2026-04-30 20:16 | 41.07046 | 29.60212 | 16104 ft | 321 kts | 337° |
| 2026-04-30 20:16 | 41.09222 | 29.59354 | 16899 ft | 330 kts | 336° |
| 2026-04-30 20:17 | 41.11449 | 29.58460 | 17701 ft | 339 kts | 336° |
| 2026-04-30 20:17 | 41.13717 | 29.57566 | 18498 ft | 347 kts | 336° |
| 2026-04-30 20:17 | 41.16063 | 29.56660 | 19214 ft | 354 kts | 336° |
| 2026-04-30 20:17 | 41.19249 | 29.55448 | 20188 ft | 363 kts | 336° |
| 2026-04-30 20:18 | 41.20897 | 29.54823 | 20692 ft | 367 kts | 336° |
| 2026-04-30 20:18 | 41.23373 | 29.53884 | 21477 ft | 372 kts | 337° |
| 2026-04-30 20:18 | 41.25909 | 29.53045 | 22264 ft | 379 kts | 340° |
| 2026-04-30 20:18 | 41.28509 | 29.52329 | 23075 ft | 384 kts | 341° |
| 2026-04-30 20:19 | 41.31106 | 29.51643 | 23848 ft | 387 kts | 341° |
| 2026-04-30 20:19 | 41.33756 | 29.50924 | 24566 ft | 389 kts | 341° |
| 2026-04-30 20:19 | 41.36411 | 29.50183 | 25273 ft | 391 kts | 340° |
| 2026-04-30 20:19 | 41.39093 | 29.49386 | 25706 ft | 399 kts | 337° |
| 2026-04-30 20:20 | 41.41741 | 29.48197 | 26099 ft | 404 kts | 332° |
| 2026-04-30 20:20 | 41.44374 | 29.46789 | 26510 ft | 412 kts | 330° |
| 2026-04-30 20:20 | 41.47044 | 29.45322 | 26910 ft | 420 kts | 330° |
| 2026-04-30 20:20 | 41.49775 | 29.43851 | 27296 ft | 427 kts | 330° |
| 2026-04-30 20:21 | 41.52567 | 29.42391 | 27692 ft | 433 kts | 331° |
| 2026-04-30 20:21 | 41.55396 | 29.40938 | 28102 ft | 438 kts | 331° |
| 2026-04-30 20:21 | 41.58257 | 29.39474 | 28533 ft | 443 kts | 331° |
| 2026-04-30 20:21 | 41.60990 | 29.37672 | 28916 ft | 432 kts | 317° |
| 2026-04-30 20:22 | 41.63093 | 29.34919 | 29356 ft | 420 kts | 301° |
| 2026-04-30 20:22 | 41.64567 | 29.31590 | 29794 ft | 414 kts | 290° |
| 2026-04-30 20:22 | 41.65475 | 29.27973 | 30208 ft | 409 kts | 278° |
| 2026-04-30 20:22 | 41.65732 | 29.24211 | 30599 ft | 407 kts | 270° |
| 2026-04-30 20:23 | 41.65771 | 29.20418 | 30960 ft | 407 kts | 269° |
| 2026-04-30 20:23 | 41.65813 | 29.16634 | 31331 ft | 407 kts | 269° |
| 2026-04-30 20:23 | 41.65882 | 29.12846 | 31704 ft | 407 kts | 270° |
| 2026-04-30 20:23 | 41.65968 | 29.09066 | 32114 ft | 406 kts | 270° |
| 2026-04-30 20:24 | 41.66055 | 29.05301 | 32501 ft | 404 kts | 270° |
| 2026-04-30 20:24 | 41.66140 | 29.01592 | 32889 ft | 403 kts | 270° |
| 2026-04-30 20:24 | 41.66224 | 28.97850 | 33289 ft | 401 kts | 270° |
| 2026-04-30 20:24 | 41.66307 | 28.94133 | 33692 ft | 399 kts | 270° |
| 2026-04-30 20:25 | 41.66468 | 28.86752 | 34460 ft | 396 kts | 270° |
| 2026-04-30 20:25 | 41.66544 | 28.83080 | 34815 ft | 395 kts | 270° |
| 2026-04-30 20:26 | 41.66692 | 28.75752 | 35542 ft | 393 kts | 270° |
| 2026-04-30 20:26 | 41.66838 | 28.68432 | 36123 ft | 397 kts | 270° |
| 2026-04-30 20:26 | 41.66910 | 28.64713 | 36130 ft | 403 kts | 270° |
| 2026-04-30 20:27 | 41.67122 | 28.49500 | 36127 ft | 408 kts | 270° |
| 2026-04-30 20:28 | 41.67279 | 28.34315 | 36137 ft | 409 kts | 270° |
| 2026-04-30 20:30 | 41.67459 | 28.15370 | 36138 ft | 408 kts | 269° |
| 2026-04-30 20:30 | 41.67870 | 28.03994 | 36138 ft | 411 kts | 281° |
| 2026-04-30 20:31 | 41.71935 | 27.93776 | 36141 ft | 421 kts | 298° |
| 2026-04-30 20:32 | 41.79980 | 27.77415 | 36150 ft | 420 kts | 298° |
| 2026-04-30 20:33 | 41.84712 | 27.67572 | 36167 ft | 421 kts | 297° |
| 2026-04-30 20:34 | 41.89466 | 27.57639 | 36162 ft | 422 kts | 297° |
| 2026-04-30 20:35 | 41.94212 | 27.47698 | 36171 ft | 421 kts | 297° |
| 2026-04-30 20:35 | 41.98960 | 27.37718 | 36198 ft | 423 kts | 297° |
| 2026-04-30 20:36 | 42.02132 | 27.31037 | 36180 ft | 424 kts | 297° |
| 2026-04-30 20:37 | 42.06885 | 27.21075 | 36214 ft | 426 kts | 301° |
| 2026-04-30 20:37 | 42.10779 | 27.14973 | 36196 ft | 431 kts | 307° |
| 2026-04-30 20:38 | 42.14851 | 27.09057 | 36201 ft | 430 kts | 307° |
| 2026-04-30 20:38 | 42.18886 | 27.03094 | 36200 ft | 430 kts | 306° |
| 2026-04-30 20:39 | 42.24868 | 26.94081 | 36214 ft | 429 kts | 306° |
| 2026-04-30 20:40 | 42.30811 | 26.85069 | 36216 ft | 428 kts | 306° |
| 2026-04-30 20:40 | 42.34773 | 26.79047 | 36227 ft | 429 kts | 306° |
| 2026-04-30 20:41 | 42.40692 | 26.70029 | 36242 ft | 430 kts | 306° |
| 2026-04-30 20:41 | 42.44681 | 26.63939 | 36241 ft | 430 kts | 306° |
| 2026-04-30 20:42 | 42.48623 | 26.57909 | 36227 ft | 430 kts | 306° |
| 2026-04-30 20:43 | 42.54121 | 26.48399 | 36245 ft | 423 kts | 295° |
| 2026-04-30 20:43 | 42.56320 | 26.41095 | 36248 ft | 418 kts | 285° |
| 2026-04-30 20:44 | 42.58955 | 26.29824 | 36240 ft | 418 kts | 284° |
| 2026-04-30 20:45 | 42.62506 | 26.14762 | 36268 ft | 419 kts | 285° |
| 2026-04-30 20:45 | 42.64291 | 26.07212 | 36272 ft | 420 kts | 285° |
| 2026-04-30 20:46 | 42.67848 | 25.92102 | 36280 ft | 421 kts | 285° |
| 2026-04-30 20:47 | 42.70511 | 25.80720 | 36295 ft | 422 kts | 285° |
| 2026-04-30 20:48 | 42.73169 | 25.69300 | 36296 ft | 423 kts | 285° |
| 2026-04-30 20:48 | 42.74939 | 25.61663 | 36293 ft | 423 kts | 285° |
| 2026-04-30 20:49 | 42.76702 | 25.54030 | 36312 ft | 423 kts | 285° |
| 2026-04-30 20:50 | 42.79348 | 25.42522 | 36294 ft | 425 kts | 285° |
| 2026-04-30 20:50 | 42.81110 | 25.34830 | 36297 ft | 426 kts | 285° |
| 2026-04-30 20:51 | 42.82856 | 25.27176 | 36303 ft | 426 kts | 285° |
| 2026-04-30 20:51 | 42.85480 | 25.15628 | 36319 ft | 426 kts | 284° |
| 2026-04-30 20:52 | 42.87225 | 25.07913 | 36310 ft | 425 kts | 284° |
| 2026-04-30 20:53 | 42.89824 | 24.96372 | 36330 ft | 425 kts | 284° |
| 2026-04-30 20:53 | 42.91556 | 24.88641 | 36321 ft | 426 kts | 284° |
| 2026-04-30 20:54 | 42.94151 | 24.77016 | 36328 ft | 428 kts | 284° |
| 2026-04-30 20:55 | 42.96743 | 24.65339 | 36333 ft | 429 kts | 284° |
| 2026-04-30 20:55 | 42.98466 | 24.57541 | 36337 ft | 429 kts | 285° |
| 2026-04-30 20:56 | 43.01040 | 24.45842 | 36335 ft | 432 kts | 285° |
| 2026-04-30 20:57 | 43.03622 | 24.34040 | 36335 ft | 433 kts | 284° |
| 2026-04-30 20:57 | 43.05339 | 24.26157 | 36346 ft | 432 kts | 285° |
| 2026-04-30 20:58 | 43.07912 | 24.14289 | 36339 ft | 435 kts | 285° |
| 2026-04-30 20:58 | 43.09625 | 24.06353 | 36336 ft | 434 kts | 285° |
| 2026-04-30 20:59 | 43.12177 | 23.94474 | 36344 ft | 434 kts | 285° |
| 2026-04-30 21:00 | 43.15563 | 23.78636 | 36350 ft | 435 kts | 285° |
| 2026-04-30 21:01 | 43.18169 | 23.66711 | 36342 ft | 436 kts | 285° |
| 2026-04-30 21:02 | 43.20781 | 23.54747 | 36342 ft | 437 kts | 285° |
| 2026-04-30 21:02 | 43.22511 | 23.46768 | 36345 ft | 437 kts | 285° |
| 2026-04-30 21:03 | 43.23947 | 23.40117 | 36343 ft | 438 kts | 285° |
| 2026-04-30 21:03 | 43.25669 | 23.32114 | 36344 ft | 438 kts | 285° |
| 2026-04-30 21:04 | 43.27390 | 23.24085 | 36344 ft | 439 kts | 285° |
| 2026-04-30 21:04 | 43.29964 | 23.12021 | 36336 ft | 440 kts | 285° |
| 2026-04-30 21:05 | 43.31678 | 23.03951 | 36333 ft | 440 kts | 285° |
| 2026-04-30 21:05 | 43.33385 | 22.95883 | 36333 ft | 440 kts | 285° |
| 2026-04-30 21:06 | 43.35090 | 22.87800 | 36340 ft | 441 kts | 285° |
| 2026-04-30 21:06 | 43.36781 | 22.79745 | 36322 ft | 441 kts | 285° |
| 2026-04-30 21:07 | 43.39033 | 22.71911 | 36336 ft | 442 kts | 295° |
| 2026-04-30 21:07 | 43.41762 | 22.64340 | 36331 ft | 443 kts | 295° |
| 2026-04-30 21:08 | 43.44500 | 22.56740 | 36340 ft | 443 kts | 295° |
| 2026-04-30 21:08 | 43.47216 | 22.49108 | 36324 ft | 444 kts | 295° |
| 2026-04-30 21:09 | 43.49918 | 22.41455 | 36319 ft | 444 kts | 295° |
| 2026-04-30 21:09 | 43.52605 | 22.33816 | 36320 ft | 443 kts | 295° |
| 2026-04-30 21:10 | 43.55288 | 22.26161 | 36315 ft | 443 kts | 295° |
| 2026-04-30 21:10 | 43.57949 | 22.18554 | 36333 ft | 444 kts | 295° |
| 2026-04-30 21:11 | 43.60627 | 22.10874 | 36323 ft | 444 kts | 295° |
| 2026-04-30 21:11 | 43.63305 | 22.03174 | 36323 ft | 445 kts | 295° |
| 2026-04-30 21:12 | 43.65977 | 21.95469 | 36322 ft | 445 kts | 295° |
| 2026-04-30 21:12 | 43.68643 | 21.87759 | 36321 ft | 445 kts | 295° |
| 2026-04-30 21:13 | 43.71303 | 21.80046 | 36318 ft | 445 kts | 295° |
| 2026-04-30 21:13 | 43.73949 | 21.72351 | 36317 ft | 445 kts | 295° |
| 2026-04-30 21:14 | 43.76606 | 21.64601 | 36317 ft | 445 kts | 295° |
| 2026-04-30 21:14 | 43.79258 | 21.56844 | 36316 ft | 446 kts | 295° |
| 2026-04-30 21:15 | 43.81904 | 21.49082 | 36313 ft | 446 kts | 295° |
| 2026-04-30 21:15 | 43.84543 | 21.41318 | 36316 ft | 446 kts | 295° |
| 2026-04-30 21:16 | 43.87183 | 21.33532 | 36301 ft | 446 kts | 295° |
| 2026-04-30 21:16 | 43.89816 | 21.25742 | 36313 ft | 446 kts | 295° |
| 2026-04-30 21:17 | 43.92444 | 21.17942 | 36306 ft | 447 kts | 295° |
| 2026-04-30 21:17 | 43.95068 | 21.10132 | 36306 ft | 447 kts | 295° |
| 2026-04-30 21:18 | 43.97692 | 21.02303 | 36300 ft | 447 kts | 295° |
| 2026-04-30 21:18 | 44.00308 | 20.94474 | 36303 ft | 447 kts | 295° |
| 2026-04-30 21:19 | 44.02900 | 20.86690 | 36316 ft | 447 kts | 295° |
| 2026-04-30 21:19 | 44.05511 | 20.78828 | 36303 ft | 448 kts | 295° |
| 2026-04-30 21:20 | 44.08122 | 20.70945 | 36300 ft | 449 kts | 295° |
| 2026-04-30 21:20 | 44.10730 | 20.63044 | 36304 ft | 450 kts | 295° |
| 2026-04-30 21:21 | 44.13336 | 20.55128 | 36309 ft | 450 kts | 295° |
| 2026-04-30 21:22 | 44.17240 | 20.43226 | 36308 ft | 451 kts | 295° |
| 2026-04-30 21:23 | 44.22440 | 20.27287 | 36319 ft | 451 kts | 295° |
| 2026-04-30 21:23 | 44.26323 | 20.15320 | 36321 ft | 451 kts | 295° |
| 2026-04-30 21:24 | 44.28907 | 20.07327 | 36324 ft | 452 kts | 295° |
| 2026-04-30 21:24 | 44.31469 | 19.99379 | 36319 ft | 452 kts | 295° |
| 2026-04-30 21:25 | 44.35332 | 19.87348 | 36327 ft | 452 kts | 295° |
| 2026-04-30 21:26 | 44.39180 | 19.75309 | 36333 ft | 452 kts | 295° |
| 2026-04-30 21:27 | 44.43018 | 19.63248 | 36335 ft | 453 kts | 295° |
| 2026-04-30 21:27 | 44.45553 | 19.55250 | 36339 ft | 452 kts | 295° |
| 2026-04-30 21:28 | 44.49374 | 19.43149 | 36336 ft | 454 kts | 295° |
| 2026-04-30 21:29 | 44.53194 | 19.30997 | 36336 ft | 455 kts | 295° |
| 2026-04-30 21:30 | 44.59592 | 19.10668 | 36339 ft | 455 kts | 298° |
| 2026-04-30 21:31 | 44.68345 | 18.92178 | 36349 ft | 455 kts | 305° |
| 2026-04-30 21:32 | 44.73640 | 18.81147 | 36348 ft | 456 kts | 304° |
| 2026-04-30 21:32 | 44.77166 | 18.73734 | 36354 ft | 456 kts | 304° |
| 2026-04-30 21:33 | 44.82448 | 18.62586 | 36357 ft | 455 kts | 304° |
| 2026-04-30 21:34 | 44.85941 | 18.55193 | 36347 ft | 456 kts | 304° |
| 2026-04-30 21:34 | 44.91211 | 18.44003 | 36366 ft | 457 kts | 304° |
| 2026-04-30 21:35 | 44.94721 | 18.36527 | 36363 ft | 457 kts | 304° |
| 2026-04-30 21:35 | 44.98226 | 18.29041 | 36364 ft | 457 kts | 304° |
| 2026-04-30 21:36 | 45.01725 | 18.21547 | 36358 ft | 457 kts | 304° |
| 2026-04-30 21:37 | 45.08727 | 18.06494 | 36364 ft | 458 kts | 304° |
| 2026-04-30 21:37 | 45.12220 | 17.98955 | 36367 ft | 458 kts | 304° |
| 2026-04-30 21:38 | 45.15706 | 17.91411 | 36361 ft | 459 kts | 305° |
| 2026-04-30 21:38 | 45.19199 | 17.83832 | 36373 ft | 459 kts | 305° |
| 2026-04-30 21:39 | 45.22666 | 17.76288 | 36376 ft | 460 kts | 304° |
| 2026-04-30 21:39 | 45.26157 | 17.68674 | 36375 ft | 460 kts | 304° |
| 2026-04-30 21:40 | 45.29640 | 17.61055 | 36372 ft | 460 kts | 305° |
| 2026-04-30 21:40 | 45.33118 | 17.53427 | 36380 ft | 460 kts | 304° |
| 2026-04-30 21:41 | 45.36598 | 17.45774 | 36377 ft | 460 kts | 304° |
| 2026-04-30 21:41 | 45.40067 | 17.38126 | 36383 ft | 460 kts | 304° |
| 2026-04-30 21:42 | 45.43533 | 17.30461 | 36371 ft | 460 kts | 305° |
| 2026-04-30 21:42 | 45.46993 | 17.22791 | 36385 ft | 460 kts | 305° |
| 2026-04-30 21:43 | 45.49869 | 17.16400 | 36381 ft | 461 kts | 304° |
| 2026-04-30 21:43 | 45.53909 | 17.07395 | 36383 ft | 461 kts | 304° |
| 2026-04-30 21:44 | 45.57335 | 16.99739 | 36367 ft | 461 kts | 305° |
| 2026-04-30 21:44 | 45.60779 | 16.92020 | 36382 ft | 461 kts | 305° |
| 2026-04-30 21:45 | 45.64220 | 16.84285 | 36390 ft | 461 kts | 305° |
| 2026-04-30 21:45 | 45.67658 | 16.76539 | 36389 ft | 462 kts | 304° |
| 2026-04-30 21:46 | 45.71097 | 16.68766 | 36387 ft | 462 kts | 304° |
| 2026-04-30 21:46 | 45.74529 | 16.60989 | 36387 ft | 462 kts | 305° |
| 2026-04-30 21:47 | 45.77964 | 16.53185 | 36389 ft | 463 kts | 305° |
| 2026-04-30 21:47 | 45.81397 | 16.45363 | 36407 ft | 464 kts | 305° |
| 2026-04-30 21:48 | 45.84808 | 16.37568 | 36398 ft | 464 kts | 305° |
| 2026-04-30 21:48 | 45.88244 | 16.29695 | 36394 ft | 464 kts | 305° |
| 2026-04-30 21:49 | 45.91672 | 16.21818 | 36401 ft | 465 kts | 305° |
| 2026-04-30 21:49 | 45.94516 | 16.15266 | 36401 ft | 465 kts | 305° |
| 2026-04-30 21:50 | 45.97930 | 16.07382 | 36402 ft | 465 kts | 305° |
| 2026-04-30 21:50 | 46.01342 | 15.99478 | 36383 ft | 465 kts | 305° |
| 2026-04-30 21:51 | 46.04748 | 15.91567 | 36395 ft | 465 kts | 305° |
| 2026-04-30 21:51 | 46.08154 | 15.83635 | 36406 ft | 466 kts | 305° |
| 2026-04-30 21:52 | 46.11565 | 15.75669 | 36402 ft | 468 kts | 305° |
| 2026-04-30 21:52 | 46.14980 | 15.67675 | 36408 ft | 468 kts | 305° |
| 2026-04-30 21:53 | 46.18356 | 15.59701 | 36404 ft | 469 kts | 304° |
| 2026-04-30 21:53 | 46.21667 | 15.51576 | 36403 ft | 470 kts | 304° |
| 2026-04-30 21:54 | 46.24958 | 15.43417 | 36402 ft | 470 kts | 304° |
| 2026-04-30 21:54 | 46.28250 | 15.35273 | 36375 ft | 469 kts | 304° |
| 2026-04-30 21:55 | 46.31544 | 15.27122 | 36397 ft | 469 kts | 304° |
| 2026-04-30 21:55 | 46.34830 | 15.18970 | 36400 ft | 469 kts | 304° |
| 2026-04-30 21:56 | 46.38104 | 15.10826 | 36413 ft | 469 kts | 304° |
| 2026-04-30 21:56 | 46.41391 | 15.02624 | 36406 ft | 470 kts | 304° |
| 2026-04-30 21:57 | 46.44669 | 14.94418 | 36400 ft | 471 kts | 304° |
| 2026-04-30 21:57 | 46.47944 | 14.86197 | 36410 ft | 472 kts | 304° |
| 2026-04-30 21:58 | 46.51224 | 14.77942 | 36412 ft | 472 kts | 304° |
| 2026-04-30 21:58 | 46.54497 | 14.69662 | 36391 ft | 472 kts | 304° |
| 2026-04-30 21:59 | 46.57749 | 14.61410 | 36388 ft | 470 kts | 304° |
| 2026-04-30 22:00 | 46.62578 | 14.49032 | 36396 ft | 469 kts | 304° |
| 2026-04-30 22:00 | 46.67324 | 14.36630 | 36406 ft | 470 kts | 304° |
| 2026-04-30 22:01 | 46.70500 | 14.28313 | 36391 ft | 470 kts | 304° |
| 2026-04-30 22:01 | 46.73681 | 14.19972 | 36398 ft | 471 kts | 304° |
| 2026-04-30 22:02 | 46.76861 | 14.11611 | 36395 ft | 472 kts | 304° |
| 2026-04-30 22:02 | 46.80041 | 14.03224 | 36391 ft | 472 kts | 304° |
| 2026-04-30 22:03 | 46.83216 | 13.94822 | 36356 ft | 472 kts | 304° |
| 2026-04-30 22:03 | 46.86382 | 13.86417 | 36385 ft | 472 kts | 304° |
| 2026-04-30 22:04 | 46.89543 | 13.78001 | 36375 ft | 473 kts | 304° |
| 2026-04-30 22:05 | 46.94282 | 13.65331 | 36383 ft | 472 kts | 304° |
| 2026-04-30 22:05 | 46.97407 | 13.56943 | 36369 ft | 472 kts | 304° |
| 2026-04-30 22:06 | 47.00540 | 13.48509 | 36376 ft | 471 kts | 305° |
| 2026-04-30 22:06 | 47.05230 | 13.35818 | 36379 ft | 472 kts | 304° |
| 2026-04-30 22:07 | 47.08362 | 13.27331 | 36377 ft | 474 kts | 304° |
| 2026-04-30 22:07 | 47.11498 | 13.18805 | 36342 ft | 475 kts | 305° |
| 2026-04-30 22:08 | 47.14630 | 13.10253 | 36366 ft | 475 kts | 305° |
| 2026-04-30 22:08 | 47.17744 | 13.01714 | 36349 ft | 474 kts | 304° |
| 2026-04-30 22:09 | 47.20845 | 12.93189 | 36345 ft | 472 kts | 304° |
| 2026-04-30 22:09 | 47.23934 | 12.84671 | 36309 ft | 471 kts | 306° |
| 2026-04-30 22:10 | 47.27002 | 12.76190 | 36344 ft | 471 kts | 305° |
| 2026-04-30 22:10 | 47.30080 | 12.67652 | 36333 ft | 472 kts | 305° |
| 2026-04-30 22:11 | 47.34676 | 12.54846 | 36346 ft | 474 kts | 305° |
| 2026-04-30 22:12 | 47.37751 | 12.46243 | 36349 ft | 474 kts | 305° |
| 2026-04-30 22:12 | 47.40821 | 12.37627 | 36366 ft | 474 kts | 305° |
| 2026-04-30 22:13 | 47.43885 | 12.28998 | 36370 ft | 474 kts | 305° |
| 2026-04-30 22:13 | 47.46943 | 12.20364 | 36378 ft | 474 kts | 305° |
| 2026-04-30 22:14 | 47.49996 | 12.11714 | 36366 ft | 474 kts | 305° |
| 2026-04-30 22:14 | 47.53018 | 12.03046 | 36368 ft | 476 kts | 302° |
| 2026-04-30 22:15 | 47.54954 | 11.93512 | 36376 ft | 491 kts | 288° |
| 2026-04-30 22:15 | 47.56194 | 11.83549 | 36364 ft | 493 kts | 287° |
| 2026-04-30 22:16 | 47.57413 | 11.73555 | 36360 ft | 491 kts | 287° |
| 2026-04-30 22:17 | 47.59949 | 11.53780 | 36363 ft | 491 kts | 287° |
| 2026-04-30 22:17 | 47.61868 | 11.38852 | 36357 ft | 491 kts | 287° |
| 2026-04-30 22:18 | 47.63757 | 11.23942 | 36033 ft | 493 kts | 287° |
| 2026-04-30 22:19 | 47.65013 | 11.13939 | 35450 ft | 494 kts | 287° |
| 2026-04-30 22:19 | 47.65642 | 11.08908 | 34958 ft | 496 kts | 287° |
| 2026-04-30 22:19 | 47.66894 | 10.98816 | 33947 ft | 499 kts | 287° |
| 2026-04-30 22:20 | 47.67519 | 10.93753 | 33365 ft | 499 kts | 286° |
| 2026-04-30 22:20 | 47.68764 | 10.83594 | 32314 ft | 501 kts | 286° |
| 2026-04-30 22:20 | 47.69385 | 10.78500 | 31794 ft | 502 kts | 286° |
| 2026-04-30 22:21 | 47.69996 | 10.73475 | 31306 ft | 503 kts | 286° |
| 2026-04-30 22:21 | 47.70608 | 10.68420 | 30821 ft | 505 kts | 285° |
| 2026-04-30 22:21 | 47.71229 | 10.63276 | 30317 ft | 507 kts | 285° |
| 2026-04-30 22:21 | 47.71850 | 10.58115 | 29747 ft | 508 kts | 285° |
| 2026-04-30 22:22 | 47.72467 | 10.52951 | 29153 ft | 508 kts | 285° |
| 2026-04-30 22:22 | 47.73084 | 10.47782 | 28598 ft | 507 kts | 284° |
| 2026-04-30 22:22 | 47.73697 | 10.42624 | 28063 ft | 507 kts | 284° |
| 2026-04-30 22:22 | 47.74302 | 10.37468 | 27533 ft | 507 kts | 283° |
| 2026-04-30 22:23 | 47.74658 | 10.32229 | 27007 ft | 513 kts | 275° |
| 2026-04-30 22:23 | 47.74565 | 10.26923 | 26506 ft | 515 kts | 271° |
| 2026-04-30 22:23 | 47.74382 | 10.21610 | 26006 ft | 515 kts | 270° |
| 2026-04-30 22:23 | 47.74196 | 10.16300 | 25505 ft | 513 kts | 270° |
| 2026-04-30 22:24 | 47.74038 | 10.11046 | 24991 ft | 506 kts | 270° |
| 2026-04-30 22:24 | 47.73906 | 10.05846 | 24517 ft | 502 kts | 271° |
| 2026-04-30 22:24 | 47.73787 | 10.00759 | 24062 ft | 498 kts | 271° |
| 2026-04-30 22:24 | 47.73663 | 9.95639 | 23538 ft | 495 kts | 270° |
| 2026-04-30 22:25 | 47.73533 | 9.90545 | 23001 ft | 492 kts | 270° |
| 2026-04-30 22:25 | 47.73398 | 9.85469 | 22459 ft | 488 kts | 270° |
| 2026-04-30 22:25 | 47.73263 | 9.80472 | 21938 ft | 483 kts | 270° |
| 2026-04-30 22:25 | 47.73131 | 9.75504 | 21430 ft | 480 kts | 270° |
| 2026-04-30 22:26 | 47.72861 | 9.65664 | 20398 ft | 470 kts | 270° |
| 2026-04-30 22:26 | 47.72737 | 9.60819 | 19912 ft | 468 kts | 270° |
| 2026-04-30 22:26 | 47.72616 | 9.56005 | 19434 ft | 466 kts | 270° |
| 2026-04-30 22:27 | 47.72483 | 9.51203 | 18961 ft | 464 kts | 269° |
| 2026-04-30 22:27 | 47.72293 | 9.46432 | 18476 ft | 461 kts | 265° |
| 2026-04-30 22:27 | 47.69739 | 9.37858 | 17420 ft | 457 kts | 231° |
| 2026-04-30 22:28 | 47.65657 | 9.30709 | 16399 ft | 451 kts | 229° |
| 2026-04-30 22:28 | 47.63655 | 9.27147 | 15900 ft | 446 kts | 230° |
| 2026-04-30 22:29 | 47.58777 | 9.15924 | 14431 ft | 425 kts | 257° |
| 2026-04-30 22:29 | 47.58295 | 9.11697 | 13966 ft | 407 kts | 261° |
| 2026-04-30 22:30 | 47.57574 | 8.96363 | 11933 ft | 359 kts | 276° |
| 2026-04-30 22:31 | 47.58204 | 8.85671 | 10476 ft | 338 kts | 275° |
| 2026-04-30 22:32 | 47.58709 | 8.75491 | 8946 ft | 324 kts | 274° |
| 2026-04-30 22:32 | 47.59015 | 8.68894 | 7941 ft | 315 kts | 274° |
| 2026-04-30 22:33 | 47.59421 | 8.59906 | 6700 ft | 261 kts | 273° |
| 2026-04-30 22:33 | 47.59649 | 8.54843 | 5960 ft | 234 kts | 273° |
| 2026-04-30 22:34 | 47.59946 | 8.48122 | 5037 ft | 193 kts | 273° |
| 2026-04-30 22:35 | 47.60071 | 8.45266 | 5017 ft | 142 kts | 273° |
| 2026-04-30 22:36 | 47.59452 | 8.40104 | 4934 ft | 128 kts | 205° |
| 2026-04-30 22:36 | 47.58563 | 8.39899 | 4296 ft | 130 kts | 154° |
| 2026-04-30 22:37 | 47.56750 | 8.42011 | 3713 ft | 117 kts | 130° |
| 2026-04-30 22:37 | 47.56153 | 8.42789 | 3566 ft | 114 kts | 130° |
| 2026-04-30 22:37 | 47.54974 | 8.44377 | 3257 ft | 116 kts | 128° |
| 2026-04-30 22:38 | 47.53774 | 8.46018 | 2945 ft | 119 kts | 129° |
| 2026-04-30 22:38 | 47.52563 | 8.47662 | 2625 ft | 119 kts | 128° |
| 2026-04-30 22:39 | 47.51950 | 8.48501 | 2456 ft | 121 kts | 130° |
| 2026-04-30 22:39 | 47.50018 | 8.51135 | 1938 ft | 132 kts | 135° |
| 2026-04-30 22:40 | 47.47924 | 8.54000 | 1421 ft | 131 kts | 138° |
| 2026-04-30 22:41 | 47.46857 | 8.55450 | 1401 ft | 20 kts | 136° |
| 2026-04-30 22:41 | 47.46702 | 8.55617 | 1400 ft | 11 kts | 154° |
| 2026-04-30 22:42 | 47.46663 | 8.55648 | 1405 ft | 0 kts | 157° |
| 2026-04-30 22:43 | 47.46638 | 8.55662 | 1398 ft | 8 kts | 162° |
| 2026-04-30 22:44 | 47.46519 | 8.55706 | 1397 ft | 11 kts | 166° |
| 2026-04-30 22:45 | 47.46307 | 8.55863 | 1401 ft | 8 kts | 137° |
| 2026-04-30 22:45 | 47.46235 | 8.55775 | 1397 ft | 12 kts | 274° |
| 2026-04-30 22:46 | 47.46258 | 8.55463 | 1399 ft | 18 kts | 276° |
| 2026-04-30 22:47 | 47.46326 | 8.55317 | 1396 ft | 0 kts | 5° |